Time;durP1;ratioP1;P1;durP2;ratioP2;P2;SDS_P1;SDS_P2;PMS_P1;PMS_P2;Temp;Humidity;BMP_temperature;BMP_pressure;BME280_temperature;BME280_humidity;BME280_pressure;Samples;Min_cycle;Max_cycle;Signal;HPM_P1;HPM_P2
2022/04/25 00:02:10;;;;;;;;;;;12.30;99.90;;;;;;5109109;28;19912;-80
2022/04/25 00:04:36;;;;;;;;;;;12.20;1.00;;;;;;5110004;28;19913;-80
2022/04/25 00:07:01;;;;;;;;;;;12.20;1.00;;;;;;5108993;28;19976;-80
2022/04/25 00:09:27;;;;;;;;;;;12.10;1.00;;;;;;5116510;28;19919;-80
2022/04/25 00:11:52;;;;;;;;;;;12.00;1.00;;;;;;5111143;28;19945;-80
2022/04/25 00:14:17;;;;;;;;;;;12.00;1.00;;;;;;5117236;28;20004;-79
2022/04/25 00:16:43;;;;;;;;;;;12.00;60.70;;;;;;5104633;28;19916;-80
2022/04/25 00:19:09;;;;;;;;;;;12.00;99.90;;;;;;5113187;28;19920;-80
2022/04/25 00:21:37;;;;;;;;;;;12.00;99.90;;;;;;5105118;28;19955;-79
2022/04/25 00:24:02;;;;;;;;;;;12.00;99.90;;;;;;5115657;28;19920;-80
2022/04/25 00:26:28;;;;;;;;;;;11.90;99.90;;;;;;5108544;28;19919;-82
2022/04/25 00:28:53;;;;;;;;;;;11.90;99.90;;;;;;5103066;28;19919;-82
2022/04/25 00:31:18;;;;;;;;;;;11.90;99.90;;;;;;5113868;28;19918;-80
2022/04/25 00:33:44;;;;;;;;;;;11.90;1.00;;;;;;5114928;28;19911;-79
2022/04/25 00:36:09;;;;;;;;;;;11.90;1.00;;;;;;5112005;28;19956;-80
2022/04/25 00:38:35;;;;;;;;;;;11.90;1.00;;;;;;5110920;28;19916;-80
2022/04/25 00:41:00;;;;;;;;;;;11.90;1.00;;;;;;5112475;28;19912;-80
2022/04/25 00:43:26;;;;;;;;;;;11.90;1.00;;;;;;5116152;28;19919;-80
2022/04/25 00:45:51;;;;;;;;;;;11.80;1.00;;;;;;5105253;28;20383;-80
2022/04/25 00:48:17;;;;;;;;;;;11.80;1.00;;;;;;5121538;28;19912;-80
2022/04/25 00:50:42;;;;;;;;;;;11.70;99.90;;;;;;5110399;28;19923;-80
2022/04/25 00:53:08;;;;;;;;;;;11.70;99.90;;;;;;5108621;28;19969;-80
2022/04/25 00:55:36;;;;;;;;;;;11.60;99.90;;;;;;5113967;28;19918;-80
2022/04/25 00:58:02;;;;;;;;;;;11.50;42.80;;;;;;5103343;28;19916;-82
2022/04/25 01:00:27;;;;;;;;;;;11.40;1.00;;;;;;5105055;28;19919;-80
2022/04/25 01:02:52;;;;;;;;;;;11.40;1.00;;;;;;5100948;28;19916;-80
2022/04/25 01:05:18;;;;;;;;;;;11.40;20.50;;;;;;5106130;28;19908;-80
2022/04/25 01:07:44;;;;;;;;;;;11.40;48.80;;;;;;5101877;28;19948;-80
2022/04/25 01:10:10;;;;;;;;;;;11.30;97.70;;;;;;5103665;28;19912;-82
2022/04/25 01:12:36;;;;;;;;;;;11.30;99.90;;;;;;5104278;28;19912;-82
2022/04/25 01:15:03;;;;;;;;;;;11.30;99.90;;;;;;5105076;28;19924;-80
2022/04/25 01:17:29;;;;;;;;;;;11.20;99.90;;;;;;5104335;28;19947;-80
2022/04/25 01:19:54;;;;;;;;;;;11.20;99.90;;;;;;5101399;28;19942;-80
2022/04/25 01:22:23;;;;;;;;;;;11.20;99.90;;;;;;5104979;28;19965;-80
2022/04/25 01:27:33;;;;;;;;;;;11.10;99.90;;;;;;5099183;28;19942;-79
2022/04/25 01:29:58;;;;;;;;;;;10.90;1.00;;;;;;5102803;28;19916;-80
2022/04/25 01:32:24;;;;;;;;;;;10.80;99.90;;;;;;5105151;28;20017;-80
2022/04/25 01:34:50;;;;;;;;;;;10.50;99.90;;;;;;5103989;28;19984;-80
2022/04/25 01:37:17;;;;;;;;;;;10.40;1.00;;;;;;5085673;28;19958;-80
2022/04/25 01:39:47;;;;;;;;;;;10.40;99.90;;;;;;5103079;28;19908;-80
2022/04/25 01:42:13;;;;;;;;;;;10.30;50.00;;;;;;5103434;28;19918;-80
2022/04/25 01:44:39;;;;;;;;;;;10.30;1.00;;;;;;5103155;28;19977;-79
2022/04/25 01:47:06;;;;;;;;;;;10.40;99.90;;;;;;5103696;28;19921;-80
2022/04/25 01:49:35;;;;;;;;;;;10.30;1.00;;;;;;5104720;28;19919;-80
2022/04/25 01:52:04;;;;;;;;;;;10.30;38.30;;;;;;5105048;28;20014;-80
2022/04/25 01:54:32;;;;;;;;;;;10.30;99.90;;;;;;5103442;28;19951;-81
2022/04/25 01:56:57;;;;;;;;;;;10.20;99.90;;;;;;5101117;28;19920;-80
2022/04/25 01:59:23;;;;;;;;;;;10.30;1.00;;;;;;5103808;28;19913;-80
2022/04/25 02:01:49;;;;;;;;;;;10.30;99.90;;;;;;5101583;28;19920;-80
2022/04/25 02:04:17;;;;;;;;;;;10.30;99.90;;;;;;5104142;28;19912;-80
2022/04/25 02:06:43;;;;;;;;;;;10.30;99.90;;;;;;5102067;28;19920;-79
2022/04/25 02:09:08;;;;;;;;;;;10.30;99.90;;;;;;5085748;28;19991;-80
2022/04/25 02:11:34;;;;;;;;;;;10.40;99.90;;;;;;5102244;28;19919;-80
2022/04/25 02:14:00;;;;;;;;;;;10.50;99.90;;;;;;5104564;28;19923;-80
2022/04/25 02:16:25;;;;;;;;;;;10.50;1.00;;;;;;5102049;28;19980;-80
2022/04/25 02:18:52;;;;;;;;;;;10.50;99.90;;;;;;5102446;28;19919;-80
2022/04/25 02:21:17;;;;;;;;;;;10.50;99.90;;;;;;5104107;28;19916;-80
2022/04/25 02:23:45;;;;;;;;;;;10.50;1.00;;;;;;5110003;28;19944;-80
2022/04/25 02:26:10;;;;;;;;;;;10.50;99.90;;;;;;5110102;28;19936;-80
2022/04/25 02:28:37;;;;;;;;;;;10.50;99.90;;;;;;5105307;28;19912;-79
2022/04/25 02:31:04;;;;;;;;;;;10.40;99.90;;;;;;5100896;28;20108;-80
2022/04/25 02:33:29;;;;;;;;;;;10.30;99.90;;;;;;5101724;28;19919;-82
2022/04/25 02:35:55;;;;;;;;;;;10.20;88.80;;;;;;5101581;28;19924;-80
2022/04/25 02:38:20;;;;;;;;;;;10.10;99.90;;;;;;5104213;28;19919;-80
2022/04/25 02:40:46;;;;;;;;;;;10.10;99.90;;;;;;5107776;28;19919;-82
2022/04/25 02:43:12;;;;;;;;;;;10.00;99.90;;;;;;5104347;28;19916;-82
2022/04/25 02:45:37;;;;;;;;;;;10.00;99.90;;;;;;5100366;28;19918;-80
2022/04/25 02:48:03;;;;;;;;;;;10.00;1.70;;;;;;5103506;28;19973;-80
2022/04/25 02:50:29;;;;;;;;;;;10.00;1.00;;;;;;5101938;28;19922;-80
2022/04/25 02:52:54;;;;;;;;;;;10.00;99.90;;;;;;5084301;28;20003;-80
2022/04/25 02:55:20;;;;;;;;;;;9.90;1.00;;;;;;5085148;28;20034;-80
2022/04/25 02:57:46;;;;;;;;;;;9.90;99.90;;;;;;5102259;28;19932;-80
2022/04/25 03:00:12;;;;;;;;;;;9.90;99.90;;;;;;5109395;28;20436;-80
2022/04/25 03:02:37;;;;;;;;;;;9.90;99.90;;;;;;5101340;28;20003;-80
2022/04/25 03:05:03;;;;;;;;;;;9.90;1.00;;;;;;5106763;28;19912;-80
2022/04/25 03:07:29;;;;;;;;;;;9.80;1.00;;;;;;5107645;28;19912;-80
2022/04/25 03:09:54;;;;;;;;;;;9.80;1.00;;;;;;5083624;28;19965;-79
2022/04/25 03:12:19;;;;;;;;;;;9.80;1.00;;;;;;5101536;28;19916;-80
2022/04/25 03:14:45;;;;;;;;;;;9.80;1.00;;;;;;5108644;28;19930;-80
2022/04/25 03:17:11;;;;;;;;;;;9.80;1.00;;;;;;5101983;28;19912;-80
2022/04/25 03:19:37;;;;;;;;;;;9.80;1.00;;;;;;5082822;28;19916;-80
2022/04/25 03:22:04;;;;;;;;;;;9.80;1.00;;;;;;5099866;28;19912;-80
2022/04/25 03:24:30;;;;;;;;;;;9.80;99.90;;;;;;5106410;28;19939;-80
2022/04/25 03:26:56;;;;;;;;;;;9.80;15.00;;;;;;5099248;28;19927;-82
2022/04/25 03:29:21;;;;;;;;;;;9.80;1.00;;;;;;5097760;28;19999;-82
2022/04/25 03:31:47;;;;;;;;;;;9.90;74.90;;;;;;5102279;28;19924;-82
2022/04/25 03:34:12;;;;;;;;;;;9.90;1.00;;;;;;5101827;28;19912;-82
2022/04/25 03:36:38;;;;;;;;;;;9.90;1.00;;;;;;5100889;28;19928;-82
2022/04/25 03:39:03;;;;;;;;;;;9.90;1.00;;;;;;5099187;28;20065;-80
2022/04/25 03:41:31;;;;;;;;;;;10.00;1.00;;;;;;5102880;28;19916;-80
2022/04/25 03:43:56;;;;;;;;;;;10.00;99.90;;;;;;5104159;28;19912;-79
2022/04/25 03:46:22;;;;;;;;;;;10.00;99.90;;;;;;5107603;28;19982;-80
2022/04/25 03:48:47;;;;;;;;;;;10.00;99.90;;;;;;5105554;28;19912;-80
2022/04/25 03:51:15;;;;;;;;;;;10.00;99.90;;;;;;5108265;28;20448;-82
2022/04/25 03:53:41;;;;;;;;;;;10.00;99.90;;;;;;5103996;28;19936;-81
2022/04/25 03:58:50;;;;;;;;;;;10.00;99.90;;;;;;5103920;28;19923;-79
2022/04/25 04:01:16;;;;;;;;;;;10.00;38.60;;;;;;5104243;28;19912;-80
2022/04/25 04:03:41;;;;;;;;;;;10.00;1.00;;;;;;5105822;28;19919;-79
2022/04/25 04:06:11;;;;;;;;;;;10.00;73.20;;;;;;5102252;28;20457;-80
2022/04/25 04:08:37;;;;;;;;;;;10.00;1.00;;;;;;5107094;28;19919;-82
2022/04/25 04:11:04;;;;;;;;;;;10.00;1.00;;;;;;5104081;28;20488;-82
2022/04/25 04:13:29;;;;;;;;;;;9.90;1.00;;;;;;5107409;28;19923;-82
2022/04/25 04:15:56;;;;;;;;;;;9.90;1.00;;;;;;5105199;28;19975;-82
2022/04/25 04:18:23;;;;;;;;;;;9.90;1.00;;;;;;5107828;28;19912;-82
2022/04/25 04:20:48;;;;;;;;;;;9.90;1.00;;;;;;5087002;28;19912;-80
2022/04/25 04:23:14;;;;;;;;;;;9.90;99.90;;;;;;5087571;28;20113;-80
2022/04/25 04:25:40;;;;;;;;;;;9.90;99.90;;;;;;5086341;28;20348;-83
2022/04/25 04:28:06;;;;;;;;;;;9.80;99.90;;;;;;5102677;28;19919;-82
2022/04/25 04:30:34;;;;;;;;;;;9.80;1.00;;;;;;5105337;28;19919;-82
2022/04/25 04:33:00;;;;;;;;;;;9.80;99.90;;;;;;5104632;28;20368;-82
2022/04/25 04:38:09;;;;;;;;;;;9.80;99.90;;;;;;5103680;28;19923;-80
2022/04/25 04:40:35;;;;;;;;;;;9.80;99.90;;;;;;5105218;28;19916;-79
2022/04/25 04:43:01;;;;;;;;;;;9.80;99.90;;;;;;5103128;28;19977;-80
2022/04/25 04:45:27;;;;;;;;;;;9.80;90.60;;;;;;5105330;28;20383;-82
2022/04/25 04:47:52;;;;;;;;;;;9.80;99.90;;;;;;5110006;28;19912;-82
2022/04/25 04:50:18;;;;;;;;;;;9.80;99.90;;;;;;5107432;28;19916;-82
2022/04/25 04:52:44;;;;;;;;;;;9.80;6.80;;;;;;5113636;28;19918;-82
2022/04/25 04:55:10;;;;;;;;;;;9.80;99.90;;;;;;5101927;28;19922;-82
2022/04/25 04:57:37;;;;;;;;;;;9.80;1.00;;;;;;5105763;28;19912;-82
2022/04/25 05:00:03;;;;;;;;;;;9.70;78.40;;;;;;5103571;28;19994;-82
2022/04/25 05:02:28;;;;;;;;;;;9.70;99.90;;;;;;5087408;28;19912;-82
2022/04/25 05:04:54;;;;;;;;;;;9.60;99.90;;;;;;5086015;28;19919;-82
2022/04/25 05:07:20;;;;;;;;;;;9.70;1.00;;;;;;5092597;28;19951;-82
2022/04/25 05:09:46;;;;;;;;;;;9.70;1.00;;;;;;5104591;28;19919;-82
2022/04/25 05:12:11;;;;;;;;;;;9.70;1.00;;;;;;5101950;28;20533;-82
2022/04/25 05:14:37;;;;;;;;;;;9.70;1.00;;;;;;5104159;28;19938;-82
2022/04/25 05:17:02;;;;;;;;;;;9.80;1.00;;;;;;5103057;28;19940;-82
2022/04/25 05:19:28;;;;;;;;;;;9.80;1.00;;;;;;5102924;28;19912;-82
2022/04/25 05:21:53;;;;;;;;;;;9.90;1.00;;;;;;5086774;28;19912;-82
2022/04/25 05:24:18;;;;;;;;;;;9.90;99.90;;;;;;5109848;28;19920;-82
2022/04/25 05:26:44;;;;;;;;;;;10.00;99.90;;;;;;5104143;28;19916;-82
2022/04/25 05:29:09;;;;;;;;;;;10.10;1.00;;;;;;5097796;28;20001;-82
2022/04/25 05:31:35;;;;;;;;;;;10.10;1.00;;;;;;5105091;28;19927;-82
2022/04/25 05:34:01;;;;;;;;;;;10.30;99.90;;;;;;5084845;28;20015;-82
2022/04/25 05:36:27;;;;;;;;;;;10.50;1.00;;;;;;5107005;28;19916;-82
2022/04/25 05:38:52;;;;;;;;;;;10.80;99.90;;;;;;5108000;28;19912;-82
2022/04/25 05:41:18;;;;;;;;;;;11.20;99.90;;;;;;5091081;28;19912;-81
2022/04/25 05:43:43;;;;;;;;;;;12.10;1.00;;;;;;5105409;28;20335;-79
2022/04/25 05:46:09;;;;;;;;;;;12.50;99.90;;;;;;5108099;28;20601;-79
2022/04/25 05:54:03;;;;;;;;;;;14.30;1.00;;;;;;5108276;28;19996;-82
2022/04/25 05:56:28;;;;;;;;;;;13.90;1.00;;;;;;5107252;28;19916;-82
2022/04/25 05:58:54;;;;;;;;;;;13.60;1.00;;;;;;5108758;28;19939;-82
2022/04/25 06:01:19;;;;;;;;;;;13.40;1.00;;;;;;5103414;28;19931;-82
2022/04/25 06:03:45;;;;;;;;;;;13.30;1.00;;;;;;5108743;28;19920;-81
2022/04/25 06:06:10;;;;;;;;;;;13.30;1.00;;;;;;5103723;28;20580;-81
2022/04/25 06:08:36;;;;;;;;;;;13.20;1.00;;;;;;5105808;28;19912;-82
2022/04/25 06:11:02;;;;;;;;;;;13.40;1.00;;;;;;5102579;28;20036;-79
2022/04/25 06:13:28;;;;;;;;;;;13.40;1.00;;;;;;5103437;28;19912;-82
2022/04/25 06:15:53;;;;;;;;;;;13.40;1.00;;;;;;5101827;28;19920;-82
2022/04/25 06:18:19;;;;;;;;;;;13.40;1.00;;;;;;5103622;28;19939;-82
2022/04/25 06:20:44;;;;;;;;;;;13.50;1.00;;;;;;5103359;28;19916;-82
2022/04/25 06:23:10;;;;;;;;;;;13.70;1.00;;;;;;5097743;28;19923;-81
2022/04/25 06:25:37;;;;;;;;;;;13.70;99.90;;;;;;5098319;28;20391;-82
2022/04/25 06:28:03;;;;;;;;;;;13.60;99.90;;;;;;5108785;28;19927;-81
2022/04/25 06:30:29;;;;;;;;;;;13.50;99.90;;;;;;5102018;28;19947;-81
2022/04/25 06:32:56;;;;;;;;;;;13.40;99.90;;;;;;5103548;28;19915;-81
2022/04/25 06:35:21;;;;;;;;;;;13.20;99.90;;;;;;5103233;28;19946;-81
2022/04/25 06:37:47;;;;;;;;;;;13.20;99.90;;;;;;5103419;28;19912;-81
2022/04/25 06:40:13;;;;;;;;;;;13.20;99.90;;;;;;5096150;28;19940;-81
2022/04/25 06:42:38;;;;;;;;;;;13.20;99.90;;;;;;5107136;28;19912;-82
2022/04/25 06:45:04;;;;;;;;;;;13.10;99.90;;;;;;5104667;28;19916;-82
2022/04/25 06:47:30;;;;;;;;;;;13.00;1.00;;;;;;5104955;28;20008;-81
2022/04/25 06:49:55;;;;;;;;;;;13.00;1.00;;;;;;5100398;28;19920;-81
2022/04/25 06:52:20;;;;;;;;;;;13.10;1.00;;;;;;5131763;22;19924;-82
2022/04/25 06:54:46;;;;;;;;;;;13.40;1.00;;;;;;5126495;28;19953;-81
2022/04/25 06:57:14;;;;;;;;;;;13.70;1.00;;;;;;5100797;28;19908;-81
2022/04/25 06:59:40;;;;;;;;;;;14.10;1.00;;;;;;5125725;28;19961;-81
2022/04/25 07:02:10;;;;;;;;;;;14.50;99.90;;;;;;5089049;28;19908;-81
2022/04/25 07:04:38;;;;;;;;;;;15.00;99.90;;;;;;5082678;28;19980;-82
2022/04/25 07:07:06;;;;;;;;;;;15.50;99.90;;;;;;5088311;28;19915;-82
2022/04/25 07:09:32;;;;;;;;;;;16.90;99.90;;;;;;5097447;28;19914;-82
2022/04/25 07:15:09;;;;;;;;;;;20.20;99.90;;;;;;5105752;28;20287;-82
2022/04/25 07:17:50;;;;;;;;;;;;;;;;;;;;;
2022/04/25 07:29:47;;;;;;;;;;;19.70;99.90;;;;;;5099869;28;20371;-82
2022/04/25 07:35:17;;;;;;;;;;;;;;;;;;;;;
2022/04/25 07:37:49;;;;;;;;;;;19.00;99.90;;;;;;5100200;28;19979;-81
2022/04/25 07:40:22;;;;;;;;;;;19.60;99.90;;;;;;5085654;28;19927;-81
2022/04/25 07:42:58;;;;;;;;;;;;;;;;;;;;;
2022/04/25 07:45:26;;;;;;;;;;;18.70;99.90;;;;;;5102677;28;20003;-82
2022/04/25 07:47:54;;;;;;;;;;;18.30;99.90;;;;;;5100775;28;20547;-82
2022/04/25 07:50:37;;;;;;;;;;;;;;;;;;;;;
2022/04/25 07:53:30;;;;;;;;;;;18.30;99.90;;;;;;5095826;28;19976;-82
2022/04/25 07:56:11;;;;;;;;;;;;;;;;;;;;;
2022/04/25 07:58:37;;;;;;;;;;;21.50;99.90;;;;;;5099294;28;19979;-82
2022/04/25 08:01:03;;;;;;;;;;;21.80;99.90;;;;;;5087424;28;19917;-82
2022/04/25 08:03:29;;;;;;;;;;;21.40;99.90;;;;;;5099952;28;20022;-81
2022/04/25 08:05:55;;;;;;;;;;;20.70;99.90;;;;;;5085703;28;20225;-81
2022/04/25 08:08:20;;;;;;;;;;;20.30;99.90;;;;;;5068786;28;19913;-81
2022/04/25 08:10:48;;;;;;;;;;;20.10;99.90;;;;;;5080034;28;19913;-80
2022/04/25 08:18:43;;;;;;;;;;;21.50;99.90;;;;;;5098185;28;19919;-80
2022/04/25 08:21:08;;;;;;;;;;;21.30;99.90;;;;;;5077672;28;19913;-80
2022/04/25 08:23:34;;;;;;;;;;;21.50;99.90;;;;;;5081097;28;19951;-80
2022/04/25 08:25:59;;;;;;;;;;;23.90;99.90;;;;;;5086330;28;19916;-80
2022/04/25 08:28:25;;;;;;;;;;;25.60;99.90;;;;;;5086844;28;19976;-80
2022/04/25 08:30:52;;;;;;;;;;;24.60;99.90;;;;;;5087693;28;19919;-80
2022/04/25 08:33:20;;;;;;;;;;;23.30;99.90;;;;;;5090231;28;19916;-81
2022/04/25 08:35:46;;;;;;;;;;;22.00;99.90;;;;;;5087368;28;19995;-81
2022/04/25 08:38:12;;;;;;;;;;;20.90;99.90;;;;;;5102507;28;19912;-81
2022/04/25 08:40:39;;;;;;;;;;;20.10;99.90;;;;;;5081560;28;19916;-82
2022/04/25 08:43:05;;;;;;;;;;;19.80;99.90;;;;;;5086099;28;19909;-80
2022/04/25 08:45:32;;;;;;;;;;;19.60;99.90;;;;;;5089391;28;19916;-80
2022/04/25 08:47:58;;;;;;;;;;;19.30;99.90;;;;;;5083748;28;19915;-80
2022/04/25 08:50:24;;;;;;;;;;;19.30;99.90;;;;;;5094044;28;19919;-81
2022/04/25 08:52:51;;;;;;;;;;;19.50;99.90;;;;;;5098906;28;19919;-81
2022/04/25 08:55:17;;;;;;;;;;;20.00;99.90;;;;;;5084082;28;19973;-81
2022/04/25 08:57:43;;;;;;;;;;;22.60;99.90;;;;;;5091474;28;19934;-81
2022/04/25 09:00:09;;;;;;;;;;;22.80;99.90;;;;;;5085850;28;19908;-81
2022/04/25 09:02:34;;;;;;;;;;;22.60;99.90;;;;;;5104311;28;20393;-81
2022/04/25 09:05:01;;;;;;;;;;;22.40;99.90;;;;;;5089894;28;20338;-81
2022/04/25 09:07:26;;;;;;;;;;;22.20;99.90;;;;;;5103656;28;19914;-80
2022/04/25 09:09:52;;;;;;;;;;;21.50;99.90;;;;;;5091414;28;20003;-81
2022/04/25 09:12:20;;;;;;;;;;;21.30;99.90;;;;;;5104690;28;20364;-80
2022/04/25 09:14:46;;;;;;;;;;;21.30;99.90;;;;;;5102350;28;19913;-82
2022/04/25 09:17:12;;;;;;;;;;;20.90;99.90;;;;;;5091659;28;19919;-83
2022/04/25 09:19:39;;;;;;;;;;;21.20;99.90;;;;;;5083333;28;19913;-80
2022/04/25 09:22:08;;;;;;;;;;;22.20;99.90;;;;;;5082929;28;19912;-80
2022/04/25 09:24:34;;;;;;;;;;;23.70;99.90;;;;;;5092678;28;19912;-81
2022/04/25 09:27:19;;;;;;;;;;;24.90;99.90;;;;;;5102572;28;19927;-80
2022/04/25 09:29:49;;;;;;;;;;;25.40;99.90;;;;;;5093607;28;19912;-80
2022/04/25 09:32:18;;;;;;;;;;;24.80;99.90;;;;;;5100952;28;19995;-80
2022/04/25 09:35:03;;;;;;;;;;;24.30;99.90;;;;;;5094169;28;19971;-81
2022/04/25 09:37:45;;;;;;;;;;;23.60;99.90;;;;;;5099793;28;19909;-81
2022/04/25 09:40:11;;;;;;;;;;;23.40;99.90;;;;;;5086385;28;19912;-81
2022/04/25 09:42:37;;;;;;;;;;;22.80;99.90;;;;;;5089753;28;19908;-82
2022/04/25 09:45:04;;;;;;;;;;;22.00;99.90;;;;;;5097194;28;20578;-80
2022/04/25 09:47:34;;;;;;;;;;;21.60;99.90;;;;;;5089907;28;19912;-81
2022/04/25 09:50:09;;;;;;;;;;;21.30;99.90;;;;;;5083767;28;19919;-81
2022/04/25 09:52:36;;;;;;;;;;;21.30;99.90;;;;;;5070227;28;19919;-81
2022/04/25 09:55:11;;;;;;;;;;;21.50;99.90;;;;;;5104499;28;19915;-81
2022/04/25 09:57:37;;;;;;;;;;;21.80;99.90;;;;;;5100429;28;19908;-81
2022/04/25 10:00:03;;;;;;;;;;;22.30;99.90;;;;;;5100132;28;19975;-81
2022/04/25 10:02:28;;;;;;;;;;;22.70;99.90;;;;;;5093873;28;19923;-81
2022/04/25 10:04:54;;;;;;;;;;;23.10;99.90;;;;;;5098084;28;20450;-81
2022/04/25 10:07:20;;;;;;;;;;;23.20;99.90;;;;;;5092156;28;19912;-81
2022/04/25 10:09:46;;;;;;;;;;;22.80;99.90;;;;;;5092275;28;20368;-81
2022/04/25 10:12:12;;;;;;;;;;;22.40;99.90;;;;;;5076574;28;19981;-81
2022/04/25 10:14:38;;;;;;;;;;;22.10;99.90;;;;;;5086641;28;19912;-82
2022/04/25 10:17:03;;;;;;;;;;;22.00;99.90;;;;;;5085192;28;20302;-81
2022/04/25 10:19:32;;;;;;;;;;;22.00;99.90;;;;;;5087551;28;20377;-83
2022/04/25 10:21:58;;;;;;;;;;;21.90;99.90;;;;;;5069807;28;19912;-81
2022/04/25 10:24:24;;;;;;;;;;;21.90;99.90;;;;;;5081308;28;19976;-81
2022/04/25 10:26:50;;;;;;;;;;;21.80;99.90;;;;;;5096683;28;19951;-81
2022/04/25 10:29:17;;;;;;;;;;;21.90;99.90;;;;;;5102366;28;19999;-81
2022/04/25 10:31:44;;;;;;;;;;;22.10;99.90;;;;;;5099737;28;19912;-81
2022/04/25 10:34:10;;;;;;;;;;;22.20;99.90;;;;;;5090542;28;19912;-81
2022/04/25 10:36:36;;;;;;;;;;;21.80;99.90;;;;;;5082452;28;20336;-81
2022/04/25 10:39:13;;;;;;;;;;;22.00;99.90;;;;;;5082954;28;19947;-81
2022/04/25 10:44:44;;;;;;;;;;;22.30;99.90;;;;;;5101753;28;19942;-81
2022/04/25 10:47:11;;;;;;;;;;;22.00;99.90;;;;;;5100406;28;19916;-81
2022/04/25 10:49:46;;;;;;;;;;;21.70;99.90;;;;;;5083793;28;19912;-82
2022/04/25 10:52:51;;;;;;;;;;;21.20;99.90;;;;;;5101345;28;20070;-81
2022/04/25 10:55:20;;;;;;;;;;;20.70;99.90;;;;;;5040131;28;19920;-81
2022/04/25 10:58:03;;;;;;;;;;;20.30;99.90;;;;;;5088326;28;19974;-81
2022/04/25 11:00:38;;;;;;;;;;;20.30;99.90;;;;;;5087118;28;19913;-81
2022/04/25 11:03:05;;;;;;;;;;;20.20;99.90;;;;;;5072043;28;19908;-81
2022/04/25 11:05:30;;;;;;;;;;;19.60;99.90;;;;;;5090202;28;19931;-81
2022/04/25 11:08:14;;;;;;;;;;;19.40;99.90;;;;;;5101606;28;19912;-81
2022/04/25 11:10:45;;;;;;;;;;;19.30;99.90;;;;;;5101220;28;19908;-81
2022/04/25 11:13:12;;;;;;;;;;;19.20;99.90;;;;;;5078886;28;20390;-81
2022/04/25 11:15:50;;;;;;;;;;;19.20;99.90;;;;;;5080292;28;19931;-81
2022/04/25 11:18:24;;;;;;;;;;;19.30;99.90;;;;;;5089587;28;19920;-81
2022/04/25 11:21:13;;;;;;;;;;;19.50;99.90;;;;;;5099177;28;19923;-81
2022/04/25 11:23:44;;;;;;;;;;;19.60;99.90;;;;;;5081381;28;19920;-81
2022/04/25 11:26:11;;;;;;;;;;;19.70;99.90;;;;;;5101186;28;19923;-81
2022/04/25 11:28:55;;;;;;;;;;;19.90;99.90;;;;;;5100541;28;19918;-81
2022/04/25 11:31:22;;;;;;;;;;;20.10;99.90;;;;;;5089538;28;19913;-81
2022/04/25 11:33:49;;;;;;;;;;;20.40;99.90;;;;;;5099114;28;19972;-81
2022/04/25 11:36:15;;;;;;;;;;;20.50;99.90;;;;;;5100947;28;19916;-81
2022/04/25 11:41:30;;;;;;;;;;;20.70;99.90;;;;;;5101424;28;19966;-81
2022/04/25 11:43:55;;;;;;;;;;;20.50;99.90;;;;;;5102576;28;19908;-81
2022/04/25 11:46:22;;;;;;;;;;;20.30;99.90;;;;;;5105270;28;19916;-81
2022/04/25 11:48:51;;;;;;;;;;;19.70;99.90;;;;;;5099866;28;20006;-81
2022/04/25 11:51:26;;;;;;;;;;;19.60;99.90;;;;;;5101425;28;19912;-81
2022/04/25 11:53:53;;;;;;;;;;;19.60;99.90;;;;;;5100834;28;19932;-81
2022/04/25 11:56:19;;;;;;;;;;;19.90;99.90;;;;;;5093824;28;19912;-81
2022/04/25 11:58:44;;;;;;;;;;;20.00;99.90;;;;;;5101617;28;19919;-81
2022/04/25 12:01:10;;;;;;;;;;;20.20;99.90;;;;;;5100271;28;19918;-81
2022/04/25 12:03:38;;;;;;;;;;;20.40;99.90;;;;;;5103753;28;19942;-81
2022/04/25 12:06:08;;;;;;;;;;;20.70;99.90;;;;;;5097813;28;19948;-81
2022/04/25 12:16:51;;;;;;;;;;;22.20;99.90;;;;;;5100431;28;19953;-82
2022/04/25 12:19:35;;;;;;;;;;;22.00;99.90;;;;;;5103314;28;19908;-82
2022/04/25 12:22:03;;;;;;;;;;;22.30;99.90;;;;;;5102982;28;19908;-82
2022/04/25 12:24:36;;;;;;;;;;;23.50;99.90;;;;;;5102544;28;19982;-82
2022/04/25 12:27:09;;;;;;;;;;;23.90;99.90;;;;;;5102357;28;19923;-82
2022/04/25 12:29:34;;;;;;;;;;;24.50;99.90;;;;;;5101680;28;19923;-82
2022/04/25 12:32:02;;;;;;;;;;;25.40;99.90;;;;;;5082303;28;19912;-81
2022/04/25 12:34:31;;;;;;;;;;;25.60;99.90;;;;;;5087168;28;19937;-82
2022/04/25 12:36:57;;;;;;;;;;;26.10;99.90;;;;;;5084861;28;19908;-81
2022/04/25 12:39:24;;;;;;;;;;;25.90;99.90;;;;;;5083839;28;19962;-82
2022/04/25 12:41:56;;;;;;;;;;;25.40;99.90;;;;;;5103213;28;20291;-82
2022/04/25 12:44:22;;;;;;;;;;;25.40;99.90;;;;;;5102291;28;19973;-82
2022/04/25 12:46:55;;;;;;;;;;;25.40;99.90;;;;;;5102308;28;19912;-81
2022/04/25 12:49:34;;;;;;;;;;;25.10;99.90;;;;;;5102071;28;20429;-82
2022/04/25 12:52:00;;;;;;;;;;;24.30;99.90;;;;;;5087391;28;19924;-81
2022/04/25 12:54:27;;;;;;;;;;;24.50;99.90;;;;;;5085056;28;19919;-82
2022/04/25 12:57:05;;;;;;;;;;;25.60;99.90;;;;;;5064487;28;20344;-82
2022/04/25 12:59:33;;;;;;;;;;;25.90;99.90;;;;;;5099425;28;19959;-82
2022/04/25 13:02:14;;;;;;;;;;;26.70;99.90;;;;;;5102393;28;19969;-82
2022/04/25 13:04:56;;;;;;;;;;;27.40;99.90;;;;;;5090727;28;19920;-82
2022/04/25 13:07:22;;;;;;;;;;;27.90;99.90;;;;;;5084432;28;19947;-82
2022/04/25 13:09:48;;;;;;;;;;;28.70;99.90;;;;;;5100160;28;19916;-80
2022/04/25 13:12:15;;;;;;;;;;;28.70;99.90;;;;;;5080424;28;19932;-80
2022/04/25 13:14:40;;;;;;;;;;;29.00;99.90;;;;;;5093756;28;19908;-80
2022/04/25 13:17:06;;;;;;;;;;;29.00;99.90;;;;;;5104565;28;19912;-79
2022/04/25 13:19:32;;;;;;;;;;;27.70;99.90;;;;;;5103309;28;19955;-79
2022/04/25 13:21:57;;;;;;;;;;;26.70;99.90;;;;;;5107221;28;19912;-79
2022/04/25 13:24:23;;;;;;;;;;;26.00;99.90;;;;;;5107991;28;20082;-79
2022/04/25 13:26:48;;;;;;;;;;;25.80;99.90;;;;;;5110928;28;19912;-78
2022/04/25 13:29:14;;;;;;;;;;;25.60;99.90;;;;;;5079541;28;19912;-79
2022/04/25 13:31:40;;;;;;;;;;;24.70;99.90;;;;;;5090605;28;19912;-80
2022/04/25 13:34:05;;;;;;;;;;;23.60;99.90;;;;;;5089138;28;19955;-79
2022/04/25 13:36:31;;;;;;;;;;;23.30;99.90;;;;;;5104301;28;19916;-80
2022/04/25 13:38:57;;;;;;;;;;;23.00;99.90;;;;;;5100462;28;20014;-79
2022/04/25 13:41:22;;;;;;;;;;;22.70;99.90;;;;;;5105600;28;19908;-80
2022/04/25 13:43:53;;;;;;;;;;;22.40;99.90;;;;;;5111773;28;19967;-79
2022/04/25 13:46:22;;;;;;;;;;;22.10;99.90;;;;;;5088840;28;19917;-78
2022/04/25 13:48:47;;;;;;;;;;;21.80;99.90;;;;;;5090683;28;19908;-79
2022/04/25 13:51:22;;;;;;;;;;;21.50;99.90;;;;;;5091900;28;20013;-79
2022/04/25 13:53:50;;;;;;;;;;;21.20;99.90;;;;;;5127671;28;19914;-80
2022/04/25 13:56:19;;;;;;;;;;;20.90;99.90;;;;;;5109697;28;19915;-79
2022/04/25 13:58:47;;;;;;;;;;;20.80;99.90;;;;;;5106890;28;19914;-78
2022/04/25 14:01:14;;;;;;;;;;;20.70;99.90;;;;;;5101816;28;19912;-79
2022/04/25 14:03:40;;;;;;;;;;;20.40;99.90;;;;;;5087704;28;19912;-79
2022/04/25 14:06:05;;;;;;;;;;;20.20;99.90;;;;;;5108905;28;19931;-79
2022/04/25 14:08:33;;;;;;;;;;;20.00;99.90;;;;;;5106329;28;19908;-79
2022/04/25 14:10:59;;;;;;;;;;;19.70;99.90;;;;;;5089266;28;19938;-79
2022/04/25 14:13:30;;;;;;;;;;;19.30;99.90;;;;;;5104695;28;19912;-79
2022/04/25 14:15:55;;;;;;;;;;;18.90;99.90;;;;;;5105286;28;19918;-79
2022/04/25 14:18:21;;;;;;;;;;;18.50;99.90;;;;;;5097057;28;19908;-79
2022/04/25 14:20:47;;;;;;;;;;;18.20;99.90;;;;;;5095741;28;19939;-79
2022/04/25 14:23:12;;;;;;;;;;;18.00;99.90;;;;;;5106632;28;19914;-79
2022/04/25 14:25:39;;;;;;;;;;;17.60;99.90;;;;;;5087161;28;19912;-79
2022/04/25 14:28:05;;;;;;;;;;;17.00;99.90;;;;;;5102662;28;19919;-79
2022/04/25 14:30:31;;;;;;;;;;;16.50;99.90;;;;;;5089209;28;19953;-79
2022/04/25 14:32:57;;;;;;;;;;;16.30;99.90;;;;;;5089599;28;19908;-78
2022/04/25 14:35:23;;;;;;;;;;;15.90;99.90;;;;;;5100212;28;19912;-78
2022/04/25 14:37:51;;;;;;;;;;;15.50;99.90;;;;;;5095793;28;19972;-79
2022/04/25 14:40:18;;;;;;;;;;;15.40;99.90;;;;;;5109816;28;19922;-79
2022/04/25 14:42:43;;;;;;;;;;;15.20;99.90;;;;;;5091469;28;19912;-79
2022/04/25 14:45:09;;;;;;;;;;;15.10;99.90;;;;;;5100688;28;19916;-79
2022/04/25 14:47:35;;;;;;;;;;;15.00;99.90;;;;;;5108515;28;19912;-79
2022/04/25 14:55:30;;;;;;;;;;;14.70;99.90;;;;;;5109989;28;19995;-80
2022/04/25 14:57:56;;;;;;;;;;;14.50;99.90;;;;;;5111469;28;19908;-79
2022/04/25 15:00:22;;;;;;;;;;;14.30;99.90;;;;;;5110604;28;19912;-80
2022/04/25 15:02:48;;;;;;;;;;;14.20;1.00;;;;;;5091885;28;19943;-81
2022/04/25 15:05:14;;;;;;;;;;;14.10;1.00;;;;;;5107389;28;20375;-80
2022/04/25 15:07:43;;;;;;;;;;;14.00;1.00;;;;;;5101344;28;19912;-80
2022/04/25 15:10:11;;;;;;;;;;;13.80;1.00;;;;;;5092106;28;19908;-81
2022/04/25 15:12:40;;;;;;;;;;;13.90;1.00;;;;;;5110131;28;19920;-80
2022/04/25 15:15:09;;;;;;;;;;;13.90;1.00;;;;;;5101371;28;19999;-82
2022/04/25 15:17:35;;;;;;;;;;;14.10;1.00;;;;;;5072912;28;19916;-83
2022/04/25 15:20:00;;;;;;;;;;;14.10;1.00;;;;;;5072793;28;19912;-82
2022/04/25 15:22:26;;;;;;;;;;;14.10;1.00;;;;;;5080840;28;19943;-85